Time;durP1;ratioP1;P1;durP2;ratioP2;P2;SDS_P1;SDS_P2;PMS_P1;PMS_P2;Temp;Humidity;BMP_temperature;BMP_pressure;BME280_temperature;BME280_humidity;BME280_pressure;Samples;Min_cycle;Max_cycle;Signal;HPM_P1;HPM_P2
2022/01/28 00:00:08;;;;;;;;;;;;;;;;;;5014225;28;885;-76
2022/01/28 00:02:48;;;;;;;;;;;;;;;;;;5014056;28;874;-76
2022/01/28 00:05:18;;;;;;;;;;;;;;;;;;5013832;28;1293;-76
2022/01/28 00:07:44;;;;;;;;;;;;;;;;;;5012791;28;803;-76
2022/01/28 00:10:09;;;;;;;;;;;;;;;;;;5012769;28;855;-76
2022/01/28 00:12:40;;;;;;;;;;;;;;;;;;5012633;28;811;-76
2022/01/28 00:15:16;;;;;;;;;;;;;;;;;;5012536;28;1264;-76
2022/01/28 00:37:09;;;;;;;;;;;;;;;;;;5012253;28;1248;-76
2022/01/28 00:39:34;;;;;;;;;;;;;;;;;;5013334;28;889;-76
2022/01/28 00:42:00;;;;;;;;;;;;;;;;;;5013530;28;950;-76
2022/01/28 00:44:25;;;;;;;;;;;;;;;;;;5012322;28;784;-76
2022/01/28 00:46:50;;;;;;;;;;;;;;;;;;5013202;28;1177;-76
2022/01/28 00:49:15;;;;;;;;;;;;;;;;;;4995854;28;1454;-76
2022/01/28 00:51:41;;;;;;;;;;;;;;;;;;5013715;28;878;-76
2022/01/28 00:54:06;;;;;;;;;;;;;;;;;;5013357;28;994;-76
2022/01/28 00:56:31;;;;;;;;;;;;;;;;;;5012017;28;1195;-76
2022/01/28 00:58:56;;;;;;;;;;;;;;;;;;5013182;28;1898;-76
2022/01/28 01:01:21;;;;;;;;;;;;;;;;;;5013353;28;855;-76
2022/01/28 01:03:47;;;;;;;;;;;;;;;;;;5013299;28;932;-76
2022/01/28 01:06:12;;;;;;;;;;;;;;;;;;5013998;28;1270;-76
2022/01/28 01:08:37;;;;;;;;;;;;;;;;;;5013183;28;990;-76
2022/01/28 01:11:03;;;;;;;;;;;;;;;;;;5013336;28;1025;-76
2022/01/28 01:13:28;;;;;;;;;;;;;;;;;;5013166;28;882;-76
2022/01/28 01:15:57;;;;;;;;;;;;;;;;;;5012888;28;1252;-76
2022/01/28 01:19:16;;;;;;;;;;;;;;;;;;5013048;28;1963;-76
2022/01/28 01:21:18;;;;;;;;;;;;;;;;;;5000074;28;1104;-76
2022/01/28 01:23:51;;;;;;;;;;;;;;;;;;5013154;28;982;-76
2022/01/28 01:26:16;;;;;;;;;;;;;;;;;;5012894;28;1310;-76
2022/01/28 01:28:42;;;;;;;;;;;;;;;;;;5012900;28;831;-76
2022/01/28 01:31:11;;;;;;;;;;;;;;;;;;5013168;28;901;-76
2022/01/28 01:33:42;;;;;;;;;;;;;;;;;;5012905;28;914;-76
2022/01/28 01:36:07;;;;;;;;;;;;;;;;;;5011583;28;1320;-76
2022/01/28 01:38:36;;;;;;;;;;;;;;;;;;5012636;28;1962;-76
2022/01/28 01:41:03;;;;;;;;;;;;;;;;;;5012849;28;835;-76
2022/01/28 01:53:51;;;;;;;;;;;;;;;;;;5016418;28;665;-76
2022/01/28 01:56:16;;;;;;;;;;;;;;;;;;5015083;28;1277;-76
2022/01/28 01:58:41;;;;;;;;;;;;;;;;;;5016262;28;1906;-77
2022/01/28 02:01:07;;;;;;;;;;;;;;;;;;5016368;28;862;-77
2022/01/28 02:03:32;;;;;;;;;;;;;;;;;;5016259;28;941;-77
2022/01/28 02:05:58;;;;;;;;;;;;;;;;;;5014611;28;1194;-77
2022/01/28 02:08:24;;;;;;;;;;;;;;;;;;5016248;28;798;-77
2022/01/28 02:10:49;;;;;;;;;;;;;;;;;;5015975;28;909;-77
2022/01/28 02:13:15;;;;;;;;;;;;;;;;;;5016238;28;780;-77
2022/01/28 02:15:40;;;;;;;;;;;;;;;;;;5015670;28;1277;-77
2022/01/28 02:18:05;;;;;;;;;;;;;;;;;;5014793;28;1902;-76
2022/01/28 02:20:35;;;;;;;;;;;;;;;;;;5015988;28;835;-76
2022/01/28 02:23:00;;;;;;;;;;;;;;;;;;5015889;28;881;-76
2022/01/28 02:25:27;;;;;;;;;;;;;;;;;;5015579;28;1181;-77
2022/01/28 02:27:52;;;;;;;;;;;;;;;;;;5014658;28;798;-77
2022/01/28 02:30:18;;;;;;;;;;;;;;;;;;5015655;28;823;-77
2022/01/28 02:32:44;;;;;;;;;;;;;;;;;;5015882;28;814;-77
2022/01/28 02:35:10;;;;;;;;;;;;;;;;;;5015366;28;1275;-76
2022/01/28 02:37:35;;;;;;;;;;;;;;;;;;5014504;28;1898;-77
2022/01/28 02:40:00;;;;;;;;;;;;;;;;;;5015650;28;906;-77
2022/01/28 02:42:43;;;;;;;;;;;;;;;;;;5015617;28;796;-77
2022/01/28 02:45:09;;;;;;;;;;;;;;;;;;5015262;28;1271;-77
2022/01/28 02:47:37;;;;;;;;;;;;;;;;;;5015556;28;796;-77
2022/01/28 02:50:03;;;;;;;;;;;;;;;;;;5015302;28;854;-76
2022/01/28 02:52:37;;;;;;;;;;;;;;;;;;5015386;28;803;-77
2022/01/28 02:55:07;;;;;;;;;;;;;;;;;;5013882;28;1236;-77
2022/01/28 02:57:34;;;;;;;;;;;;;;;;;;5015228;28;1906;-77
2022/01/28 02:59:59;;;;;;;;;;;;;;;;;;5013851;28;899;-77
2022/01/28 03:02:24;;;;;;;;;;;;;;;;;;5015192;28;1060;-77
2022/01/28 03:05:09;;;;;;;;;;;;;;;;;;5014866;28;1102;-77
2022/01/28 03:07:34;;;;;;;;;;;;;;;;;;5015023;28;1807;-76
2022/01/28 03:12:37;;;;;;;;;;;;;;;;;;5014342;28;909;-77
2022/01/28 03:15:07;;;;;;;;;;;;;;;;;;5014599;28;1189;-77
2022/01/28 03:20:15;;;;;;;;;;;;;;;;;;5014960;28;1013;-77
2022/01/28 03:22:41;;;;;;;;;;;;;;;;;;5013620;28;871;-77
2022/01/28 03:25:06;;;;;;;;;;;;;;;;;;5013313;28;1205;-76
2022/01/28 03:27:51;;;;;;;;;;;;;;;;;;5014689;28;814;-76
2022/01/28 03:30:16;;;;;;;;;;;;;;;;;;5014637;28;814;-77
2022/01/28 03:32:41;;;;;;;;;;;;;;;;;;5014689;28;840;-77
2022/01/28 03:35:06;;;;;;;;;;;;;;;;;;5014299;28;1265;-77
2022/01/28 03:37:32;;;;;;;;;;;;;;;;;;5013162;28;1906;-77
2022/01/28 03:39:57;;;;;;;;;;;;;;;;;;5014274;28;875;-77
2022/01/28 03:42:22;;;;;;;;;;;;;;;;;;5014456;28;910;-77
2022/01/28 03:44:47;;;;;;;;;;;;;;;;;;5014240;28;1274;-77
2022/01/28 03:47:12;;;;;;;;;;;;;;;;;;5014393;28;957;-77
2022/01/28 03:49:37;;;;;;;;;;;;;;;;;;5013149;28;800;-77
2022/01/28 03:52:03;;;;;;;;;;;;;;;;;;5012974;28;907;-77
2022/01/28 03:54:28;;;;;;;;;;;;;;;;;;5014142;28;934;-77
2022/01/28 03:56:53;;;;;;;;;;;;;;;;;;5013828;28;1247;-77
2022/01/28 03:59:18;;;;;;;;;;;;;;;;;;5014243;28;1968;-77
2022/01/28 04:01:46;;;;;;;;;;;;;;;;;;5013964;28;870;-77
2022/01/28 04:05:07;;;;;;;;;;;;;;;;;;5014105;28;885;-77
2022/01/28 04:12:39;;;;;;;;;;;;;;;;;;5012986;28;700;-77
2022/01/28 04:17:49;;;;;;;;;;;;;;;;;;5013822;28;1906;-76
2022/01/28 04:20:14;;;;;;;;;;;;;;;;;;5013723;28;1174;-77
2022/01/28 04:22:39;;;;;;;;;;;;;;;;;;5013777;28;945;-77
2022/01/28 04:25:05;;;;;;;;;;;;;;;;;;5013342;28;1275;-77
2022/01/28 04:27:30;;;;;;;;;;;;;;;;;;5012403;28;1158;-77
2022/01/28 04:29:55;;;;;;;;;;;;;;;;;;5013639;28;1006;-77
2022/01/28 04:32:21;;;;;;;;;;;;;;;;;;5013472;28;869;-77
2022/01/28 04:34:46;;;;;;;;;;;;;;;;;;5012331;28;1177;-77
2022/01/28 04:37:20;;;;;;;;;;;;;;;;;;5013280;28;847;-77
2022/01/28 04:42:35;;;;;;;;;;;;;;;;;;5013661;28;913;-77
2022/01/28 04:45:16;;;;;;;;;;;;;;;;;;5013399;28;1292;-76
2022/01/28 04:48:24;;;;;;;;;;;;;;;;;;5012327;28;839;-77
2022/01/28 05:03:32;;;;;;;;;;;;;;;;;;5013489;28;839;-76
2022/01/28 05:14:28;;;;;;;;;;;;;;;;;;5013752;28;861;-77
2022/01/28 05:25:24;;;;;;;;;;;;;;;;;;5017165;28;1188;-77
2022/01/28 05:27:46;;;;;;;;;;;;;;;;;;5015832;28;1001;-77
2022/01/28 05:30:11;;;;;;;;;;;;;;;;;;5017053;28;806;-76
2022/01/28 05:32:36;;;;;;;;;;;;;;;;;;5016519;28;854;-77
2022/01/28 05:35:02;;;;;;;;;;;;;;;;;;5016537;28;1287;-77
2022/01/28 05:37:27;;;;;;;;;;;;;;;;;;5015443;28;1961;-77
2022/01/28 05:39:52;;;;;;;;;;;;;;;;;;5016836;28;783;-77
2022/01/28 05:42:18;;;;;;;;;;;;;;;;;;5016574;28;1005;-77
2022/01/28 05:44:43;;;;;;;;;;;;;;;;;;5016655;28;1181;-76
2022/01/28 05:47:13;;;;;;;;;;;;;;;;;;5016424;28;784;-77
2022/01/28 05:49:39;;;;;;;;;;;;;;;;;;5016866;28;859;-77
2022/01/28 05:52:04;;;;;;;;;;;;;;;;;;5016553;28;846;-77
2022/01/28 05:54:29;;;;;;;;;;;;;;;;;;5016546;28;834;-77
2022/01/28 05:56:54;;;;;;;;;;;;;;;;;;5016191;28;1153;-77
2022/01/28 05:59:19;;;;;;;;;;;;;;;;;;5016449;28;1955;-77
2022/01/28 06:01:45;;;;;;;;;;;;;;;;;;5016248;28;1009;-77
2022/01/28 06:04:10;;;;;;;;;;;;;;;;;;5016470;28;905;-77
2022/01/28 06:06:35;;;;;;;;;;;;;;;;;;5015938;28;1192;-77
2022/01/28 06:09:01;;;;;;;;;;;;;;;;;;5016263;28;784;-77
2022/01/28 06:11:26;;;;;;;;;;;;;;;;;;5014928;28;1461;-77
2022/01/28 06:13:51;;;;;;;;;;;;;;;;;;5016101;28;878;-77
2022/01/28 06:16:17;;;;;;;;;;;;;;;;;;5015799;28;1173;-77
2022/01/28 06:18:42;;;;;;;;;;;;;;;;;;5014778;28;1961;-76
2022/01/28 06:21:07;;;;;;;;;;;;;;;;;;5014884;28;1009;-77
2022/01/28 06:23:33;;;;;;;;;;;;;;;;;;5016013;28;882;-77
2022/01/28 06:25:58;;;;;;;;;;;;;;;;;;5014357;28;1180;-77
2022/01/28 06:28:23;;;;;;;;;;;;;;;;;;5015910;28;1009;-77
2022/01/28 06:30:48;;;;;;;;;;;;;;;;;;5015831;28;791;-77
2022/01/28 06:33:14;;;;;;;;;;;;;;;;;;5015001;28;1077;-77
2022/01/28 06:35:42;;;;;;;;;;;;;;;;;;5015460;28;1291;-77
2022/01/28 06:38:08;;;;;;;;;;;;;;;;;;5015525;28;1957;-77
2022/01/28 06:40:33;;;;;;;;;;;;;;;;;;5014552;28;850;-77
2022/01/28 06:42:58;;;;;;;;;;;;;;;;;;5015807;28;807;-77
2022/01/28 06:45:23;;;;;;;;;;;;;;;;;;5015319;28;1189;-77
2022/01/28 06:47:49;;;;;;;;;;;;;;;;;;5015414;28;800;-77
2022/01/28 06:50:14;;;;;;;;;;;;;;;;;;5014476;28;835;-77
2022/01/28 06:52:41;;;;;;;;;;;;;;;;;;5005210;28;1037;-77
2022/01/28 06:55:06;;;;;;;;;;;;;;;;;;4994425;28;1212;-77
2022/01/28 06:57:31;;;;;;;;;;;;;;;;;;4995608;28;1968;-77
2022/01/28 06:59:57;;;;;;;;;;;;;;;;;;4995738;28;855;-77
2022/01/28 07:02:22;;;;;;;;;;;;;;;;;;5010629;28;1473;-77
2022/01/28 07:04:47;;;;;;;;;;;;;;;;;;4995639;28;1185;-77
2022/01/28 07:07:12;;;;;;;;;;;;;;;;;;4995678;28;784;-77
2022/01/28 07:09:38;;;;;;;;;;;;;;;;;;4995490;28;879;-77
2022/01/28 07:12:03;;;;;;;;;;;;;;;;;;4995420;28;875;-77
2022/01/28 07:14:28;;;;;;;;;;;;;;;;;;4994123;28;1052;-77
2022/01/28 07:16:53;;;;;;;;;;;;;;;;;;4993949;28;1204;-77
2022/01/28 07:19:19;;;;;;;;;;;;;;;;;;4995235;28;1971;-77
2022/01/28 07:21:44;;;;;;;;;;;;;;;;;;4995289;28;903;-77
2022/01/28 07:24:09;;;;;;;;;;;;;;;;;;4995315;28;899;-77
2022/01/28 07:26:34;;;;;;;;;;;;;;;;;;4994862;28;1257;-77
2022/01/28 07:28:59;;;;;;;;;;;;;;;;;;4994164;28;1246;-77
2022/01/28 07:31:25;;;;;;;;;;;;;;;;;;4995112;28;768;-77
2022/01/28 07:33:50;;;;;;;;;;;;;;;;;;4993597;28;1283;-77
2022/01/28 07:36:15;;;;;;;;;;;;;;;;;;4994688;28;1177;-77
2022/01/28 07:38:40;;;;;;;;;;;;;;;;;;4993607;28;1967;-77
2022/01/28 07:41:06;;;;;;;;;;;;;;;;;;4995022;28;816;-77
2022/01/28 07:43:33;;;;;;;;;;;;;;;;;;4994952;28;886;-77
2022/01/28 07:45:58;;;;;;;;;;;;;;;;;;4992683;28;1279;-77
2022/01/28 07:48:23;;;;;;;;;;;;;;;;;;4994697;28;918;-77
2022/01/28 07:50:49;;;;;;;;;;;;;;;;;;4994789;28;823;-77
2022/01/28 07:53:16;;;;;;;;;;;;;;;;;;4994577;28;886;-77
2022/01/28 07:55:42;;;;;;;;;;;;;;;;;;4994441;28;1197;-77
2022/01/28 07:58:07;;;;;;;;;;;;;;;;;;4993590;28;1914;-77
2022/01/28 08:00:32;;;;;;;;;;;;;;;;;;4994492;28;766;-77
2022/01/28 08:02:57;;;;;;;;;;;;;;;;;;4994519;28;961;-77
2022/01/28 08:05:23;;;;;;;;;;;;;;;;;;4992978;28;1205;-77
2022/01/28 08:07:48;;;;;;;;;;;;;;;;;;4993446;28;922;-77
2022/01/28 08:10:16;;;;;;;;;;;;;;;;;;4994556;28;865;-76
2022/01/28 08:12:48;;;;;;;;;;;;;;;;;;4994359;28;893;-76
2022/01/28 08:15:14;;;;;;;;;;;;;;;;;;4993969;28;1263;-76
2022/01/28 08:17:39;;;;;;;;;;;;;;;;;;4993219;28;1961;-76
2022/01/28 08:20:05;;;;;;;;;;;;;;;;;;4994348;28;780;-77
2022/01/28 08:22:30;;;;;;;;;;;;;;;;;;4993102;28;926;-77
2022/01/28 08:24:55;;;;;;;;;;;;;;;;;;4993765;28;1376;-77
2022/01/28 08:27:20;;;;;;;;;;;;;;;;;;4994265;28;930;-77
2022/01/28 08:29:45;;;;;;;;;;;;;;;;;;4994037;28;795;-77
2022/01/28 08:32:11;;;;;;;;;;;;;;;;;;4994067;28;839;-77
2022/01/28 08:34:36;;;;;;;;;;;;;;;;;;4993814;28;1285;-77
2022/01/28 08:37:03;;;;;;;;;;;;;;;;;;4993913;28;851;-77
2022/01/28 08:39:29;;;;;;;;;;;;;;;;;;4993862;28;1906;-77
2022/01/28 08:41:54;;;;;;;;;;;;;;;;;;4994024;28;874;-77
2022/01/28 08:44:19;;;;;;;;;;;;;;;;;;4992780;28;799;-77
2022/01/28 08:46:44;;;;;;;;;;;;;;;;;;4993771;28;1208;-77
2022/01/28 08:49:10;;;;;;;;;;;;;;;;;;4993841;28;910;-77
2022/01/28 08:51:35;;;;;;;;;;;;;;;;;;4992694;28;816;-77
2022/01/28 08:54:00;;;;;;;;;;;;;;;;;;4993683;28;1056;-77
2022/01/28 08:56:25;;;;;;;;;;;;;;;;;;4993242;28;1184;-77
2022/01/28 08:58:50;;;;;;;;;;;;;;;;;;4992358;28;1898;-76
2022/01/28 09:01:16;;;;;;;;;;;;;;;;;;4993785;28;792;-76
2022/01/28 09:03:41;;;;;;;;;;;;;;;;;;4992129;28;1188;-76
2022/01/28 09:06:06;;;;;;;;;;;;;;;;;;4993368;28;1197;-76
2022/01/28 09:08:31;;;;;;;;;;;;;;;;;;4993695;28;1204;-77
2022/01/28 09:10:59;;;;;;;;;;;;;;;;;;4992372;28;934;-76
2022/01/28 09:13:27;;;;;;;;;;;;;;;;;;4993567;28;831;-76
2022/01/28 09:15:54;;;;;;;;;;;;;;;;;;4993348;28;1189;-76
2022/01/28 09:18:19;;;;;;;;;;;;;;;;;;4992316;28;1960;-76
2022/01/28 09:20:45;;;;;;;;;;;;;;;;;;4992335;28;800;-77
2022/01/28 09:23:10;;;;;;;;;;;;;;;;;;4993643;28;941;-77
2022/01/28 09:25:35;;;;;;;;;;;;;;;;;;4993164;28;1111;-77
2022/01/28 09:28:01;;;;;;;;;;;;;;;;;;4992155;28;1036;-77
2022/01/28 09:30:26;;;;;;;;;;;;;;;;;;4992213;28;1005;-77
2022/01/28 09:32:52;;;;;;;;;;;;;;;;;;4993313;28;1072;-77
2022/01/28 09:35:17;;;;;;;;;;;;;;;;;;4993062;28;1181;-76
2022/01/28 09:37:42;;;;;;;;;;;;;;;;;;4993443;28;1899;-76
2022/01/28 09:40:08;;;;;;;;;;;;;;;;;;4993587;28;847;-76
2022/01/28 09:42:36;;;;;;;;;;;;;;;;;;4992104;28;838;-77
2022/01/28 09:45:07;;;;;;;;;;;;;;;;;;4991660;28;1268;-77
2022/01/28 09:47:32;;;;;;;;;;;;;;;;;;4993523;28;846;-76
2022/01/28 09:49:58;;;;;;;;;;;;;;;;;;4993363;28;871;-76
2022/01/28 09:52:23;;;;;;;;;;;;;;;;;;4992118;28;997;-77
2022/01/28 09:54:48;;;;;;;;;;;;;;;;;;4991982;28;1256;-76
2022/01/28 09:57:17;;;;;;;;;;;;;;;;;;4993185;28;891;-77
2022/01/28 09:59:42;;;;;;;;;;;;;;;;;;4992182;28;1899;-77
2022/01/28 10:02:08;;;;;;;;;;;;;;;;;;4992175;28;1084;-77
2022/01/28 10:04:33;;;;;;;;;;;;;;;;;;4992833;28;910;-77
2022/01/28 10:06:58;;;;;;;;;;;;;;;;;;4993144;28;1281;-77
2022/01/28 10:09:24;;;;;;;;;;;;;;;;;;4995889;28;978;-77
2022/01/28 10:11:52;;;;;;;;;;;;;;;;;;4996595;28;819;-77
2022/01/28 10:14:21;;;;;;;;;;;;;;;;;;4996661;28;815;-77
2022/01/28 10:16:56;;;;;;;;;;;;;;;;;;4996159;28;1184;-77
2022/01/28 10:19:22;;;;;;;;;;;;;;;;;;4996488;28;1910;-77
2022/01/28 10:21:47;;;;;;;;;;;;;;;;;;4995160;28;1568;-77
2022/01/28 10:24:18;;;;;;;;;;;;;;;;;;4996304;28;918;-77
2022/01/28 10:26:56;;;;;;;;;;;;;;;;;;4996010;28;1293;-77
2022/01/28 10:29:22;;;;;;;;;;;;;;;;;;4996383;28;803;-77
2022/01/28 10:31:54;;;;;;;;;;;;;;;;;;4996371;28;858;-77
2022/01/28 10:34:21;;;;;;;;;;;;;;;;;;4995114;28;862;-77
2022/01/28 10:36:47;;;;;;;;;;;;;;;;;;4994580;28;1224;-77
2022/01/28 10:39:15;;;;;;;;;;;;;;;;;;4995994;28;1953;-76
2022/01/28 10:42:02;;;;;;;;;;;;;;;;;;4978948;28;1022;-77
2022/01/28 10:44:27;;;;;;;;;;;;;;;;;;4995465;28;1118;-77
2022/01/28 10:46:58;;;;;;;;;;;;;;;;;;4995788;28;1173;-77
2022/01/28 10:49:31;;;;;;;;;;;;;;;;;;4995932;28;812;-77
2022/01/28 10:52:02;;;;;;;;;;;;;;;;;;4994676;28;859;-77
2022/01/28 10:54:27;;;;;;;;;;;;;;;;;;4995905;28;803;-77
2022/01/28 10:56:54;;;;;;;;;;;;;;;;;;4995632;28;1161;-77
2022/01/28 10:59:20;;;;;;;;;;;;;;;;;;4994540;28;1981;-77
2022/01/28 11:01:46;;;;;;;;;;;;;;;;;;4978177;28;1366;-78
2022/01/28 11:04:12;;;;;;;;;;;;;;;;;;4995631;28;874;-78
2022/01/28 11:06:38;;;;;;;;;;;;;;;;;;4995387;28;1279;-78
2022/01/28 11:09:03;;;;;;;;;;;;;;;;;;4995597;28;942;-78
2022/01/28 11:11:28;;;;;;;;;;;;;;;;;;4995393;28;942;-78
2022/01/28 11:13:54;;;;;;;;;;;;;;;;;;4995412;28;799;-77
2022/01/28 11:16:19;;;;;;;;;;;;;;;;;;4995004;28;1195;-77
2022/01/28 11:18:44;;;;;;;;;;;;;;;;;;4994358;28;1894;-77
2022/01/28 11:21:13;;;;;;;;;;;;;;;;;;4994165;28;870;-77
2022/01/28 11:23:41;;;;;;;;;;;;;;;;;;4995488;28;835;-77
2022/01/28 11:26:15;;;;;;;;;;;;;;;;;;4994811;28;1263;-77
2022/01/28 11:28:47;;;;;;;;;;;;;;;;;;4994037;28;870;-77
2022/01/28 11:31:13;;;;;;;;;;;;;;;;;;4995374;28;874;-78
2022/01/28 11:33:48;;;;;;;;;;;;;;;;;;4995385;28;791;-78
2022/01/28 11:36:15;;;;;;;;;;;;;;;;;;4994757;28;1169;-78
2022/01/28 11:38:43;;;;;;;;;;;;;;;;;;4993696;28;1924;-78
2022/01/28 11:41:10;;;;;;;;;;;;;;;;;;4994978;28;811;-78
2022/01/28 11:43:43;;;;;;;;;;;;;;;;;;4993668;28;1017;-78
2022/01/28 11:46:08;;;;;;;;;;;;;;;;;;4993483;28;1229;-78
2022/01/28 11:48:52;;;;;;;;;;;;;;;;;;4993693;28;974;-78
2022/01/28 11:51:20;;;;;;;;;;;;;;;;;;4994668;28;922;-78
2022/01/28 11:53:57;;;;;;;;;;;;;;;;;;4994744;28;873;-78
2022/01/28 11:56:24;;;;;;;;;;;;;;;;;;4994491;28;1282;-77
2022/01/28 11:59:02;;;;;;;;;;;;;;;;;;4994615;28;1961;-78
2022/01/28 12:01:40;;;;;;;;;;;;;;;;;;4993466;28;898;-77
2022/01/28 12:04:24;;;;;;;;;;;;;;;;;;4994489;28;796;-77
2022/01/28 12:06:56;;;;;;;;;;;;;;;;;;4994077;28;1178;-77
2022/01/28 12:09:25;;;;;;;;;;;;;;;;;;4993164;28;1501;-78
2022/01/28 12:11:50;;;;;;;;;;;;;;;;;;4994526;28;933;-78
2022/01/28 12:14:16;;;;;;;;;;;;;;;;;;4994172;28;839;-78
2022/01/28 12:16:45;;;;;;;;;;;;;;;;;;4993865;28;1200;-78
2022/01/28 12:19:20;;;;;;;;;;;;;;;;;;4993120;28;1907;-78
2022/01/28 12:22:04;;;;;;;;;;;;;;;;;;4976844;28;1445;-78
2022/01/28 12:24:29;;;;;;;;;;;;;;;;;;4994104;28;799;-78
2022/01/28 12:26:55;;;;;;;;;;;;;;;;;;4992619;28;1291;-78
2022/01/28 12:29:30;;;;;;;;;;;;;;;;;;4994129;28;835;-78
2022/01/28 12:31:56;;;;;;;;;;;;;;;;;;4993779;28;867;-78
2022/01/28 12:34:22;;;;;;;;;;;;;;;;;;4992928;28;831;-78
2022/01/28 12:36:48;;;;;;;;;;;;;;;;;;4993569;28;1109;-78
2022/01/28 12:39:22;;;;;;;;;;;;;;;;;;4993865;28;1918;-78
2022/01/28 12:42:05;;;;;;;;;;;;;;;;;;4993905;28;913;-78
2022/01/28 12:44:30;;;;;;;;;;;;;;;;;;4978393;28;1398;-78
2022/01/28 12:46:57;;;;;;;;;;;;;;;;;;4992387;28;1359;-78
2022/01/28 12:49:29;;;;;;;;;;;;;;;;;;4993845;28;866;-78
2022/01/28 12:51:56;;;;;;;;;;;;;;;;;;4992596;28;819;-78
2022/01/28 12:54:53;;;;;;;;;;;;;;;;;;4992688;28;800;-79
2022/01/28 12:57:19;;;;;;;;;;;;;;;;;;4971056;28;1300;-78
2022/01/28 12:59:45;;;;;;;;;;;;;;;;;;4992514;28;1907;-78
2022/01/28 13:02:11;;;;;;;;;;;;;;;;;;4992689;28;811;-78
2022/01/28 13:04:59;;;;;;;;;;;;;;;;;;4992334;28;1276;-78
2022/01/28 13:09:52;;;;;;;;;;;;;;;;;;4992730;28;921;-78
2022/01/28 13:12:20;;;;;;;;;;;;;;;;;;4993569;28;993;-78
2022/01/28 13:14:45;;;;;;;;;;;;;;;;;;4993484;28;1350;-78
2022/01/28 13:17:10;;;;;;;;;;;;;;;;;;4993339;28;1013;-78
2022/01/28 13:19:36;;;;;;;;;;;;;;;;;;4993793;28;1906;-78
2022/01/28 13:22:01;;;;;;;;;;;;;;;;;;4993589;28;889;-79
2022/01/28 13:24:27;;;;;;;;;;;;;;;;;;4993549;28;882;-79
2022/01/28 13:26:57;;;;;;;;;;;;;;;;;;4993000;28;1247;-79
2022/01/28 13:29:28;;;;;;;;;;;;;;;;;;4992590;28;850;-79
2022/01/28 13:31:56;;;;;;;;;;;;;;;;;;4993422;28;883;-79
2022/01/28 13:34:22;;;;;;;;;;;;;;;;;;4993602;28;819;-79
2022/01/28 13:36:47;;;;;;;;;;;;;;;;;;4991892;28;1168;-79
2022/01/28 13:39:14;;;;;;;;;;;;;;;;;;4992050;28;1965;-79
2022/01/28 13:41:40;;;;;;;;;;;;;;;;;;4993603;28;1004;-79
2022/01/28 13:44:18;;;;;;;;;;;;;;;;;;4995704;28;822;-79
2022/01/28 13:46:48;;;;;;;;;;;;;;;;;;4997000;28;1335;-79
2022/01/28 13:49:16;;;;;;;;;;;;;;;;;;4997280;28;823;-79
2022/01/28 13:51:41;;;;;;;;;;;;;;;;;;4997043;28;886;-79
2022/01/28 13:56:33;;;;;;;;;;;;;;;;;;4996972;28;1181;-81
2022/01/28 13:58:58;;;;;;;;;;;;;;;;;;4996787;28;1969;-79
2022/01/28 14:01:25;;;;;;;;;;;;;;;;;;4996851;28;819;-80
2022/01/28 14:03:51;;;;;;;;;;;;;;;;;;4995601;28;835;-79
2022/01/28 14:06:20;;;;;;;;;;;;;;;;;;4996595;28;1185;-80
2022/01/28 14:08:50;;;;;;;;;;;;;;;;;;4996676;28;827;-80
2022/01/28 14:11:23;;;;;;;;;;;;;;;;;;4995459;28;863;-81
2022/01/28 14:14:17;;;;;;;;;;;;;;;;;;4995576;28;815;-80
2022/01/28 14:16:50;;;;;;;;;;;;;;;;;;4995210;28;1292;-80
2022/01/28 14:19:15;;;;;;;;;;;;;;;;;;4978984;28;1962;-80
2022/01/28 14:21:41;;;;;;;;;;;;;;;;;;4995302;28;875;-80
2022/01/28 14:24:06;;;;;;;;;;;;;;;;;;4996669;28;917;-80
2022/01/28 14:26:38;;;;;;;;;;;;;;;;;;4996000;28;1201;-80
2022/01/28 14:31:55;;;;;;;;;;;;;;;;;;4973268;28;1260;-80
2022/01/28 14:34:21;;;;;;;;;;;;;;;;;;4996445;28;838;-79
2022/01/28 14:36:46;;;;;;;;;;;;;;;;;;4996024;28;1169;-80
2022/01/28 14:39:11;;;;;;;;;;;;;;;;;;4978370;28;1898;-81
2022/01/28 14:41:37;;;;;;;;;;;;;;;;;;4994952;28;796;-80
2022/01/28 14:44:03;;;;;;;;;;;;;;;;;;4995982;28;832;-80
2022/01/28 14:46:28;;;;;;;;;;;;;;;;;;4994557;28;1205;-80
2022/01/28 14:48:53;;;;;;;;;;;;;;;;;;4996048;28;914;-80
2022/01/28 14:51:19;;;;;;;;;;;;;;;;;;4996013;28;839;-80
2022/01/28 14:53:44;;;;;;;;;;;;;;;;;;4994529;28;855;-80
2022/01/28 14:56:09;;;;;;;;;;;;;;;;;;4995519;28;1273;-80
2022/01/28 14:58:34;;;;;;;;;;;;;;;;;;4995803;28;1906;-80
2022/01/28 15:01:00;;;;;;;;;;;;;;;;;;4995742;28;835;-80
2022/01/28 15:03:25;;;;;;;;;;;;;;;;;;4995563;28;756;-80
2022/01/28 15:05:50;;;;;;;;;;;;;;;;;;4995376;28;1214;-80
2022/01/28 15:08:25;;;;;;;;;;;;;;;;;;4995502;28;879;-80
2022/01/28 15:10:50;;;;;;;;;;;;;;;;;;4994812;28;829;-80
2022/01/28 15:13:17;;;;;;;;;;;;;;;;;;4995721;28;787;-80
2022/01/28 15:15:42;;;;;;;;;;;;;;;;;;4995372;28;1297;-79
2022/01/28 15:18:07;;;;;;;;;;;;;;;;;;4995273;28;1969;-80
2022/01/28 15:20:34;;;;;;;;;;;;;;;;;;4995426;28;827;-80
2022/01/28 15:22:59;;;;;;;;;;;;;;;;;;4995376;28;850;-80
2022/01/28 15:25:25;;;;;;;;;;;;;;;;;;4995146;28;1287;-80
2022/01/28 15:27:51;;;;;;;;;;;;;;;;;;4995239;28;807;-80
2022/01/28 15:30:28;;;;;;;;;;;;;;;;;;4994026;28;835;-79
2022/01/28 15:38:15;;;;;;;;;;;;;;;;;;4994911;28;1971;-80
2022/01/28 15:40:40;;;;;;;;;;;;;;;;;;4994951;28;819;-80
2022/01/28 15:43:05;;;;;;;;;;;;;;;;;;4994917;28;800;-80
2022/01/28 15:45:31;;;;;;;;;;;;;;;;;;4994611;28;1162;-80
2022/01/28 15:47:56;;;;;;;;;;;;;;;;;;4993866;28;819;-80
2022/01/28 15:50:23;;;;;;;;;;;;;;;;;;4993669;28;824;-80
2022/01/28 15:52:49;;;;;;;;;;;;;;;;;;4993480;28;894;-80
2022/01/28 15:55:16;;;;;;;;;;;;;;;;;;4994339;28;1183;-80
2022/01/28 15:57:41;;;;;;;;;;;;;;;;;;4993389;28;1898;-80
2022/01/28 16:00:07;;;;;;;;;;;;;;;;;;4994675;28;965;-80
2022/01/28 16:02:32;;;;;;;;;;;;;;;;;;4994778;28;788;-80
2022/01/28 16:04:57;;;;;;;;;;;;;;;;;;4993007;28;1189;-80
2022/01/28 16:07:23;;;;;;;;;;;;;;;;;;4992603;28;866;-80
2022/01/28 16:09:55;;;;;;;;;;;;;;;;;;4993168;28;793;-80
2022/01/28 16:15:17;;;;;;;;;;;;;;;;;;4993522;28;1267;-80
2022/01/28 16:17:42;;;;;;;;;;;;;;;;;;4994486;28;1957;-80
2022/01/28 16:20:08;;;;;;;;;;;;;;;;;;4994276;28;811;-80
2022/01/28 16:22:33;;;;;;;;;;;;;;;;;;4994151;28;1041;-80
2022/01/28 16:24:58;;;;;;;;;;;;;;;;;;4993863;28;1264;-80
2022/01/28 16:27:23;;;;;;;;;;;;;;;;;;4994528;28;843;-80
2022/01/28 16:29:50;;;;;;;;;;;;;;;;;;4994295;28;1001;-80
2022/01/28 16:32:15;;;;;;;;;;;;;;;;;;4994015;28;823;-80
2022/01/28 16:34:40;;;;;;;;;;;;;;;;;;4976440;28;1240;-80
2022/01/28 16:37:06;;;;;;;;;;;;;;;;;;4992403;28;815;-80
2022/01/28 16:39:36;;;;;;;;;;;;;;;;;;4993935;28;1906;-80
2022/01/28 16:42:02;;;;;;;;;;;;;;;;;;4994105;28;943;-80
2022/01/28 16:44:28;;;;;;;;;;;;;;;;;;4993942;28;858;-80
2022/01/28 16:46:53;;;;;;;;;;;;;;;;;;4993676;28;1185;-79
2022/01/28 16:49:18;;;;;;;;;;;;;;;;;;4993918;28;887;-79
2022/01/28 16:51:43;;;;;;;;;;;;;;;;;;4992622;28;887;-80
2022/01/28 16:54:10;;;;;;;;;;;;;;;;;;4976422;28;861;-80
2022/01/28 16:56:36;;;;;;;;;;;;;;;;;;4992244;28;1208;-79
2022/01/28 16:59:01;;;;;;;;;;;;;;;;;;4992565;28;1906;-79
2022/01/28 17:01:26;;;;;;;;;;;;;;;;;;4993691;28;871;-79
2022/01/28 17:03:52;;;;;;;;;;;;;;;;;;4993785;28;794;-79
2022/01/28 17:06:18;;;;;;;;;;;;;;;;;;4993488;28;1299;-79
2022/01/28 17:08:43;;;;;;;;;;;;;;;;;;4993598;28;811;-79
2022/01/28 17:11:40;;;;;;;;;;;;;;;;;;4993670;28;815;-79
2022/01/28 17:13:57;;;;;;;;;;;;;;;;;;4993434;28;1363;-79
2022/01/28 17:16:23;;;;;;;;;;;;;;;;;;4993221;28;1141;-79
2022/01/28 17:18:49;;;;;;;;;;;;;;;;;;4997363;28;1969;-79
2022/01/28 17:21:14;;;;;;;;;;;;;;;;;;5012726;28;1494;-79
2022/01/28 17:23:39;;;;;;;;;;;;;;;;;;4997826;28;823;-79
2022/01/28 17:26:05;;;;;;;;;;;;;;;;;;4997220;28;1183;-79
2022/01/28 17:28:30;;;;;;;;;;;;;;;;;;4996407;28;819;-79
2022/01/28 17:30:55;;;;;;;;;;;;;;;;;;4997415;28;954;-78
2022/01/28 17:33:20;;;;;;;;;;;;;;;;;;4997353;28;804;-78
2022/01/28 17:35:46;;;;;;;;;;;;;;;;;;4997049;28;1320;-78
2022/01/28 17:38:15;;;;;;;;;;;;;;;;;;4997073;28;1971;-78
2022/01/28 17:40:40;;;;;;;;;;;;;;;;;;4997200;28;811;-78
2022/01/28 17:43:06;;;;;;;;;;;;;;;;;;4979954;28;1232;-78
2022/01/28 17:45:31;;;;;;;;;;;;;;;;;;4979399;28;1320;-78
2022/01/28 17:47:57;;;;;;;;;;;;;;;;;;4995768;28;859;-78
2022/01/28 17:50:23;;;;;;;;;;;;;;;;;;4996966;28;800;-78
2022/01/28 17:52:49;;;;;;;;;;;;;;;;;;4995911;28;804;-78
2022/01/28 17:55:14;;;;;;;;;;;;;;;;;;4996733;28;1205;-78
2022/01/28 17:57:39;;;;;;;;;;;;;;;;;;4996995;28;792;-78
2022/01/28 18:00:05;;;;;;;;;;;;;;;;;;4996793;28;1986;-78
2022/01/28 18:02:30;;;;;;;;;;;;;;;;;;4995878;28;935;-78
2022/01/28 18:04:55;;;;;;;;;;;;;;;;;;4996402;28;1328;-78
2022/01/28 18:07:20;;;;;;;;;;;;;;;;;;4996694;28;866;-78
2022/01/28 18:09:46;;;;;;;;;;;;;;;;;;4997224;28;764;-78
2022/01/28 18:12:11;;;;;;;;;;;;;;;;;;4996641;28;887;-78
2022/01/28 18:14:36;;;;;;;;;;;;;;;;;;4995428;28;1153;-78
2022/01/28 18:17:01;;;;;;;;;;;;;;;;;;4995003;28;974;-78
2022/01/28 18:19:27;;;;;;;;;;;;;;;;;;4995242;28;1963;-78
2022/01/28 18:21:53;;;;;;;;;;;;;;;;;;4996604;28;811;-78
2022/01/28 18:24:18;;;;;;;;;;;;;;;;;;4996576;28;823;-78
2022/01/28 18:26:43;;;;;;;;;;;;;;;;;;4997119;28;1193;-78
2022/01/28 18:29:09;;;;;;;;;;;;;;;;;;5008439;28;1059;-78
2022/01/28 18:31:34;;;;;;;;;;;;;;;;;;5015978;28;961;-78
2022/01/28 18:34:00;;;;;;;;;;;;;;;;;;5015928;28;839;-78
2022/01/28 18:36:25;;;;;;;;;;;;;;;;;;5014503;28;1188;-78
2022/01/28 18:38:50;;;;;;;;;;;;;;;;;;5015642;28;1969;-78
2022/01/28 18:41:16;;;;;;;;;;;;;;;;;;5015707;28;799;-78
2022/01/28 18:43:42;;;;;;;;;;;;;;;;;;5014540;28;1021;-78